Latest Weather Observations for Cape Otway

IDV60801

Issued at 11:03 pm EDT Friday 14 December 2018 (issued every 10 minutes, with the page automatically refreshed every 10 minutes)

About weather observations | Map of weather stations | Latest weather observations for VIC | Other Formats
Station Details ID: 090015 Name: CAPE OTWAY LIGHTHOUSE Lat: -38.86 Lon: 143.51 Height: 82.0 m
Data from the previous 72 hours. | See also: Recent months at Cape Otway
Date/Time
EDT
Temp
°C
App
Temp
°C
Dew
Point
°C
Rel
Hum
%
Delta-T
°C
Wind Press
QNH
hPa
Press
MSL
hPa
Rain since
9am
mm
Dir  Spd
km/h
Gust
km/h
Spd
kts
Gust
kts
14/11:00pm 16.3 12.2 16.0 98 0.2 E 32 46 17 25 1007.3 1007.2 15.0
14/10:40pm 16.2 12.1 15.9 98 0.2 E 32 50 17 27 1007.4 1007.3 15.0
14/10:30pm 16.3 11.7 16.0 98 0.2 E 35 50 19 27 1007.5 1007.4 15.0
14/10:00pm 16.2 11.1 15.9 98 0.2 ESE 37 48 20 26 1007.4 1007.3 14.8
14/09:30pm 16.2 10.8 15.9 98 0.2 ESE 39 54 21 29 1007.2 1007.1 14.4
14/09:00pm 16.1 11.4 15.8 98 0.2 ESE 35 46 19 25 1007.2 1007.1 14.4
14/08:30pm 16.1 12.3 15.8 98 0.2 E 30 41 16 22 1007.5 1007.4 14.0
14/08:00pm 16.1 11.0 15.8 98 0.2 ESE 37 56 20 30 1007.1 1007.0 14.0
14/07:57pm 16.1 11.0 15.8 98 0.2 ESE 37 56 20 30 1006.9 1006.8 14.0
14/07:30pm 16.0 9.7 15.7 98 0.2 ESE 43 54 23 29 1006.5 1006.4 14.0
14/07:00pm 16.0 9.1 15.7 98 0.2 ESE 46 61 25 33 1005.8 1005.6 13.8
14/06:30pm 15.9 7.9 15.6 98 0.2 ESE 52 67 28 36 1005.3 1005.1 13.8
14/06:00pm 15.9 7.9 15.6 98 0.2 ESE 52 65 28 35 1005.1 1004.9 13.8
14/05:30pm 15.8 8.5 15.5 98 0.2 ESE 48 57 26 31 1005.7 1005.5 13.6
14/05:00pm 15.9 9.4 15.6 98 0.2 ESE 44 56 24 30 1006.0 1005.8 13.6
14/04:43pm 16.1 10.6 15.8 98 0.2 E 39 57 21 31 1006.0 1005.8 13.6
14/04:30pm 16.1 9.9 15.8 98 0.2 E 43 59 23 32 1006.1 1005.9 13.6
14/04:00pm 16.2 10.8 15.9 98 0.2 E 39 57 21 31 1006.0 1005.8 13.6
14/03:30pm 16.3 10.1 16.0 98 0.2 E 43 65 23 35 1005.6 1005.4 13.6
14/03:00pm 16.3 10.1 16.0 98 0.2 E 43 61 23 33 1005.4 1005.2 13.6
14/02:46pm 16.3 9.9 16.0 98 0.2 E 44 63 24 34 1005.4 1005.2 13.6
14/02:30pm 16.2 9.4 15.9 98 0.2 ESE 46 63 25 34 1005.4 1005.2 13.6
14/02:08pm 16.2 9.0 15.9 98 0.2 ESE 48 69 26 37 1005.1 1004.9 13.6
14/02:00pm 16.2 9.4 15.9 98 0.2 ESE 46 61 25 33 1005.1 1004.9 13.6
14/01:30pm 16.2 8.7 15.9 98 0.2 ESE 50 65 27 35 1004.9 1004.7 13.6
14/01:00pm 16.2 8.7 15.9 98 0.2 ESE 50 63 27 34 1005.0 1004.8 13.6
14/12:48pm 16.2 9.8 15.9 98 0.2 E 44 63 24 34 1005.1 1004.9 13.6
14/12:30pm 16.1 9.3 15.8 98 0.2 ESE 46 61 25 33 1005.4 1005.2 13.4
14/12:00pm 16.1 9.9 15.8 98 0.2 E 43 57 23 31 1005.4 1005.2 13.2
14/11:30am 16.3 11.7 16.0 98 0.2 E 35 56 19 30 1005.3 1005.1 12.6
14/11:23am 16.3 12.0 16.0 98 0.2 E 33 52 18 28 1005.2 1005.0 12.4
14/11:00am 16.1 11.0 15.8 98 0.2 ESE 37 48 20 26 1005.2 1005.0 11.2
14/10:30am 16.1 10.6 15.8 98 0.2 ESE 39 57 21 31 1005.5 1005.3 8.6
14/10:02am 15.9 10.0 15.6 98 0.2 ESE 41 59 22 32 1005.5 1005.3 5.8
14/10:00am 15.9 9.6 15.6 98 0.2 ESE 43 59 23 32 1005.5 1005.3 5.6
14/09:53am 15.9 10.0 15.6 98 0.2 E 41 59 22 32 1005.4 1005.2 5.0
14/09:30am 16.0 10.5 15.7 98 0.2 ESE 39 54 21 29 1005.2 1005.0 3.2
14/09:23am 16.0 11.2 15.7 98 0.2 ESE 35 54 19 29 1005.3 1005.1 2.4
14/09:00am 15.9 10.3 15.6 98 0.2 ESE 39 54 21 29 1005.1 1004.9 9.8
14/08:30am 15.9 9.4 15.6 98 0.2 ESE 44 54 24 29 1004.7 1004.5 9.4
14/08:00am 15.9 9.0 15.6 98 0.2 ESE 46 57 25 31 1004.4 1004.2 9.4
14/07:30am 15.9 9.0 15.6 98 0.2 ESE 46 61 25 33 1003.8 1003.6 9.4
14/07:00am 16.0 8.4 15.7 98 0.2 ESE 50 63 27 34 1003.5 1003.3 9.4
14/06:30am 16.1 7.8 15.8 98 0.2 ESE 54 65 29 35 1002.9 1002.7 9.2
14/06:00am 16.1 8.9 15.8 98 0.2 ESE 48 63 26 34 1002.5 1002.3 8.8
14/05:30am 16.2 9.4 15.9 98 0.2 ESE 46 57 25 31 1002.3 1002.2 8.6
14/05:00am 16.2 9.4 15.9 98 0.2 ESE 46 65 25 35 1001.9 1001.8 8.6
14/04:41am 16.3 9.6 16.0 98 0.2 E 46 70 25 38 1001.4 1001.3 8.6
14/04:30am 16.3 10.1 16.0 98 0.2 E 43 59 23 32 1001.5 1001.4 8.6
14/04:00am 16.2 10.0 15.9 98 0.2 E 43 63 23 34 1001.3 1001.2 8.6
14/03:30am 16.3 9.2 16.0 98 0.2 ESE 48 69 26 37 1001.0 1000.9 8.6
14/03:00am 16.3 9.1 15.8 97 0.3 ESE 48 67 26 36 1000.8 1000.7 8.6
14/02:35am 16.4 8.1 15.9 97 0.3 ESE 54 72 29 39 1000.4 1000.3 8.6
14/02:30am 16.4 8.5 15.9 97 0.3 ESE 52 65 28 35 1000.4 1000.3 8.6
14/02:19am 16.4 8.5 15.9 97 0.3 ESE 52 70 28 38 1000.3 1000.2 8.6
14/02:00am 16.4 9.2 15.9 97 0.3 ESE 48 61 26 33 1000.2 1000.1 8.6
14/01:30am 16.5 10.3 16.0 97 0.3 ESE 43 57 23 31 1000.2 1000.1 8.2
14/01:00am 16.5 9.8 16.0 97 0.3 ESE 46 61 25 33 999.8 999.7 8.2
14/12:30am 16.7 9.3 16.2 97 0.3 ESE 50 63 27 34 998.9 998.8 7.8
14/12:00am 16.7 8.9 16.2 97 0.3 ESE 52 63 28 34 998.6 998.5 7.8
 
Date/Time
EDT
Temp
°C
App
Temp
°C
Dew
Point
°C
Rel
Hum
%
Delta-T
°C
Wind Press
QNH
hPa
Press
MSL
hPa
Rain since
9am
mm
Dir  Spd
km/h
Gust
km/h
Spd
kts
Gust
kts
13/11:30pm 16.8 9.4 16.2 96 0.4 ESE 50 61 27 33 998.0 997.9 7.8
13/11:00pm 16.8 10.1 16.2 96 0.4 ESE 46 59 25 32 998.0 997.9 7.8
13/10:30pm 16.8 9.4 16.2 96 0.4 ESE 50 63 27 34 997.6 997.5 7.6
13/10:04pm 16.8 13.5 16.0 95 0.5 SE 28 46 15 25 997.8 997.7 7.4
13/10:00pm 16.8 14.2 16.0 95 0.5 ESE 24 37 13 20 998.0 997.9 7.4
13/09:30pm 16.6 16.8 15.8 95 0.5 SE 9 15 5 8 998.8 998.7 5.2
13/09:00pm 16.6 16.8 15.8 95 0.5 S 9 22 5 12 998.9 998.8 2.4
13/08:30pm 16.2 14.3 15.2 94 0.6 SSW 19 28 10 15 998.5 998.4 2.4
13/08:00pm 16.1 14.5 15.1 94 0.6 SSW 17 24 9 13 998.2 998.1 2.4
13/07:30pm 16.0 15.5 15.0 94 0.6 SSW 11 17 6 9 998.1 998.0 2.4
13/07:00pm 15.9 15.0 14.8 93 0.6 SSW 13 17 7 9 997.8 997.7 2.4
13/06:30pm 15.9 15.0 14.8 93 0.6 SSW 13 17 7 9 997.6 997.5 2.4
13/06:00pm 16.1 15.3 15.0 93 0.6 WSW 13 17 7 9 997.7 997.6 2.4
13/05:30pm 16.2 15.4 15.1 93 0.6 W 13 19 7 10 998.2 998.1 2.4
13/05:00pm 16.7 16.8 15.6 93 0.6 W 9 13 5 7 998.6 998.5 2.4
13/04:30pm 16.3 15.5 15.2 93 0.6 WSW 13 17 7 9 998.6 998.5 2.4
13/04:00pm 16.3 15.2 15.2 93 0.6 SW 15 19 8 10 998.3 998.2 2.4
13/03:30pm 16.4 15.7 15.4 94 0.6 SW 13 19 7 10 998.3 998.2 2.4
13/03:00pm 16.2 15.8 15.2 94 0.6 SW 11 15 6 8 997.9 997.8 2.4
13/02:30pm 16.0 15.2 15.0 94 0.6 SW 13 20 7 11 997.1 997.0 2.4
13/02:00pm 15.7 13.6 14.6 93 0.6 SSW 19 28 10 15 998.3 998.2 2.4
13/01:30pm 16.0 14.0 14.9 93 0.6 WSW 19 28 10 15 999.1 999.0 2.4
13/01:00pm 15.9 13.7 14.8 93 0.6 SW 20 28 11 15 999.4 999.3 2.4
13/12:30pm 16.1 14.8 14.8 92 0.7 W 15 20 8 11 999.9 999.8 2.2
13/12:00pm 16.0 15.0 14.7 92 0.8 NW 13 19 7 10 1000.2 1000.1 2.0
13/11:30am 15.8 15.5 14.3 91 0.9 NW 9 13 5 7 1000.1 1000.0 1.8
13/11:00am 15.9 14.5 14.4 91 0.9 WNW 15 19 8 10 1000.2 1000.1 1.4
13/10:30am 15.9 16.0 14.4 91 0.9 NNW 7 11 4 6 999.8 999.7 1.2
13/10:00am 16.0 15.0 14.5 91 0.9 WNW 13 19 7 10 999.4 999.3 1.0
13/09:30am 16.3 14.6 14.7 90 0.9 WNW 17 22 9 12 999.3 999.2 0.6
13/09:00am 16.4 14.7 14.6 89 1.0 WNW 17 24 9 13 999.1 999.0 2.2
13/08:30am 16.9 15.3 14.9 88 1.2 WNW 17 22 9 12 999.3 999.2 1.4
13/08:00am 16.2 15.6 14.6 90 0.9 NW 11 17 6 9 999.2 999.1 1.0
13/07:30am 16.5 14.9 14.9 90 0.9 NW 17 24 9 13 998.8 998.7 1.0
13/07:00am 16.6 14.5 14.8 89 1.0 NW 19 26 10 14 999.0 998.9 1.0
13/06:30am 16.6 14.5 14.6 88 1.2 WNW 19 28 10 15 998.5 998.4 1.0
13/06:00am 16.7 13.5 14.3 86 1.4 WNW 24 37 13 20 998.9 998.8 1.0
13/05:30am 17.0 14.6 14.3 84 1.5 WNW 20 30 11 16 999.3 999.2 1.0
13/05:00am 17.1 14.3 14.2 83 1.7 NW 22 30 12 16 999.2 999.1 1.0
13/04:30am 17.1 14.6 14.2 83 1.7 NW 20 28 11 15 998.9 998.8 1.0
13/04:00am 17.1 14.2 14.0 82 1.8 NW 22 32 12 17 998.8 998.7 1.0
13/03:30am 17.2 13.3 13.3 78 2.2 NW 26 37 14 20 999.0 998.9 1.0
13/03:00am 18.3 14.7 13.2 72 2.9 WNW 24 37 13 20 998.8 998.7 1.0
13/02:30am 21.9 20.5 13.3 58 5.0 NNE 13 20 7 11 998.0 997.9 1.0
13/02:00am 22.3 19.5 13.1 56 5.3 NE 20 32 11 17 997.8 997.7 1.0
13/01:30am 22.7 18.3 12.9 54 5.6 NE 28 43 15 23 997.9 997.8 1.0
13/01:00am 21.4 18.2 13.1 59 4.8 NE 22 28 12 15 998.5 998.4 1.0
13/12:30am 21.3 17.7 13.2 60 4.7 NE 24 33 13 18 998.8 998.7 1.0
13/12:00am 21.0 16.2 13.9 64 4.1 NE 32 46 17 25 999.2 999.1 1.0
 
Date/Time
EDT
Temp
°C
App
Temp
°C
Dew
Point
°C
Rel
Hum
%
Delta-T
°C
Wind Press
QNH
hPa
Press
MSL
hPa
Rain since
9am
mm
Dir  Spd
km/h
Gust
km/h
Spd
kts
Gust
kts
12/11:30pm 20.1 15.7 14.2 69 3.4 NE 30 39 16 21 999.5 999.4 1.0
12/11:00pm 19.8 14.9 14.4 71 3.2 NE 33 41 18 22 1000.1 1000.0 1.0
12/10:30pm 20.2 16.0 13.6 66 3.8 NE 28 37 15 20 1001.0 1000.9 0.4
12/10:00pm 22.0 19.2 13.1 57 5.1 NE 20 32 11 17 1001.5 1001.4 0.0
12/09:30pm 22.6 19.8 13.1 55 5.5 NNE 20 28 11 15 1001.4 1001.3 0.0
12/09:00pm 21.8 18.6 14.2 62 4.5 NNE 24 33 13 18 1001.5 1001.4 0.0
12/08:30pm 22.2 18.8 14.8 63 4.4 N 26 35 14 19 1002.3 1002.2 0.0
12/08:00pm 21.4 17.3 15.0 67 3.8 N 30 39 16 21 1002.8 1002.6 0.0
12/07:30pm 21.5 18.0 14.6 65 4.1 N 26 35 14 19 1002.9 1002.7 0.0
12/07:00pm 21.1 18.0 15.6 71 3.3 N 26 35 14 19 1003.6 1003.4 0.0
12/06:30pm 21.2 20.7 17.8 81 2.1 N 17 32 9 17 1003.7 1003.5 0.0
12/06:00pm 18.3 16.2 14.8 80 2.0 E 19 24 10 13 1002.2 1002.1 0.0
12/05:30pm 18.7 16.2 14.0 74 2.7 E 20 30 11 16 1002.2 1002.1 0.0
12/05:00pm 21.0 19.4 14.9 68 3.6 E 17 20 9 11 1002.7 1002.5 0.0
12/04:30pm 22.8 20.0 15.4 63 4.4 NE 24 37 13 20 1003.0 1002.8 0.0
12/04:00pm 23.0 20.4 15.8 64 4.4 ENE 24 35 13 19 1003.5 1003.3 0.0
12/03:30pm 23.9 20.5 15.9 61 4.9 ENE 28 37 15 20 1003.9 1003.7 0.0
12/03:00pm 23.4 20.5 16.0 63 4.5 NE 26 39 14 21 1004.0 1003.8 0.0
12/02:30pm 23.4 21.6 16.9 67 4.0 ENE 22 30 12 16 1004.5 1004.3 0.0
12/02:00pm 20.8 18.8 16.4 76 2.7 E 22 30 12 16 1005.2 1005.0 0.0
12/01:30pm 20.5 18.9 15.9 75 2.8 ESE 19 28 10 15 1005.8 1005.6 0.0
12/01:00pm 20.6 18.6 15.4 72 3.1 ESE 20 28 11 15 1006.2 1006.1 0.0
12/12:30pm 22.0 21.0 16.7 72 3.2 ESE 17 22 9 12 1006.5 1006.4 0.0
12/12:00pm 22.0 21.7 17.4 75 2.9 E 15 19 8 10 1007.0 1006.9 0.0
12/11:30am 20.2 18.7 16.4 79 2.3 E 19 26 10 14 1007.4 1007.3 0.0
12/11:00am 19.4 17.8 15.9 80 2.1 E 19 26 10 14 1007.5 1007.4 0.0
12/10:30am 19.3 17.6 15.8 80 2.1 E 19 26 10 14 1007.9 1007.8 0.0
12/10:00am 18.8 17.0 15.5 81 2.0 ENE 19 24 10 13 1008.3 1008.2 0.0
12/09:30am 18.7 17.2 15.4 81 1.9 ENE 17 26 9 14 1008.7 1008.6 0.0
12/09:00am 18.4 17.0 15.6 84 1.7 E 17 28 9 15 1009.0 1008.9 0.0
12/08:30am 17.7 16.2 15.3 86 1.4 E 17 24 9 13 1009.1 1009.0 0.0
12/08:00am 16.5 14.7 14.5 88 1.2 ENE 17 28 9 15 1009.0 1008.9 0.0
12/07:30am 15.7 13.7 13.9 89 1.0 ENE 17 28 9 15 1009.1 1009.0 0.0
12/07:00am 15.5 12.2 13.9 90 0.9 ENE 24 37 13 20 1009.0 1008.9 0.0
12/06:30am 15.3 11.2 13.7 90 0.9 ENE 28 37 15 20 1008.9 1008.8 0.0
12/06:00am 15.1 10.4 13.3 89 1.0 ENE 30 41 16 22 1009.1 1009.0 0.0
12/05:30am 15.2 10.6 13.4 89 1.0 ENE 30 39 16 21 1009.2 1009.1 0.0
12/05:00am 15.4 11.2 13.4 88 1.1 ENE 28 41 15 22 1009.5 1009.4 0.0
12/04:30am 15.5 11.0 13.7 89 1.0 ENE 30 41 16 22 1009.9 1009.8 0.0
12/04:00am 15.3 11.1 13.5 89 1.0 ENE 28 39 15 21 1010.1 1010.0 0.0
12/03:30am 15.4 11.2 13.6 89 1.0 ENE 28 35 15 19 1010.5 1010.4 0.0
12/03:00am 15.4 11.6 13.6 89 1.0 ENE 26 37 14 20 1010.8 1010.7 0.0
12/02:30am 15.5 11.0 13.7 89 1.0 ENE 30 43 16 23 1011.1 1011.0 0.0
12/02:00am 15.5 11.3 13.5 88 1.1 ENE 28 43 15 23 1011.4 1011.3 0.0
12/01:30am 15.2 11.6 13.2 88 1.1 E 24 32 13 17 1012.0 1011.9 0.0
12/01:00am 15.0 11.8 13.0 88 1.1 E 22 30 12 16 1012.7 1012.6 0.0
12/12:30am 15.0 12.1 13.0 88 1.1 ENE 20 26 11 14 1013.5 1013.4 0.0
12/12:00am 15.0 12.1 13.0 88 1.1 ENE 20 28 11 15 1014.0 1013.9 0.0
 
Date/Time
EDT
Temp
°C
App
Temp
°C
Dew
Point
°C
Rel
Hum
%
Delta-T
°C
Wind Press
QNH
hPa
Press
MSL
hPa
Rain since
9am
mm
Dir  Spd
km/h
Gust
km/h
Spd
kts
Gust
kts
11/11:30pm 15.1 13.6 13.1 88 1.1 ENE 13 20 7 11 1014.7 1014.6 0.0

Other Formats:

Comma delimited format used in spreadsheet applications
http://www.bom.gov.au/fwo/IDV60801/IDV60801.94842.axf

JavaScript Object Notation format (JSON) in row-major order
http://www.bom.gov.au/fwo/IDV60801/IDV60801.94842.json